Am Qui, Tennessee
Current Conditions -  °F | °C
As of 2:53 PM on Saturday 22 Nov 2014 (Local Time) from KBNA Reporting Station
Scattered Clouds Scattered Clouds  
Wind Chill: 64°   Ceiling: Unl
Heat Index: 64°   Visibility: 10mi
Dew Point: 32°   Wind: 15mph
Humidity: 30%   Direction: 180°S
Pressure: 30.17"   Gusts: 24mph
Location:  36.2555°N, 86.6973°W
Report Text: KBNA 222053Z 18013G21KT 10SM SCT100 SCT250 18/00 A3017 RMK AO2 SLP213 T01780000 56031
Loading
Personal Weather Stations






























Interactive Weather Map New forecast layout! Learn more

10-Day Weather Forecast

Advertisements
Track Severe Weather on mobile